MDT,Max TemperatureF,Mean TemperatureF,Min TemperatureF,Max Dew PointF,MeanDew PointF,Min DewpointF,Max Humidity, Mean Humidity, Min Humidity, Max Sea Level PressureIn, Mean Sea Level PressureIn, Min Sea Level PressureIn, Max VisibilityMiles, Mean VisibilityMiles, Min VisibilityMiles, Max Wind SpeedMPH, Mean Wind SpeedMPH, Max Gust SpeedMPH,PrecipitationIn, CloudCover, Events, WindDirDegrees
2011-9-1,87,69,51,54,45,43,72,46,22,30.39,30.29,30.20,10,10,10,18,5,25,0.03,2,Thunderstorm,223
2011-9-2,82,66,51,54,49,39,94,59,23,30.35,30.27,30.18,10,10,0,22,4,26,0.01,1,Thunderstorm,4
2011-9-3,84,66,48,48,45,37,87,53,21,30.32,30.25,30.22,10,10,10,25,6,34,0.00,3,Thunderstorm,34
2011-9-4,73,62,48,50,46,41,87,60,41,30.41,30.37,30.33,10,10,10,24,13,30,0.02,3,Thunderstorm,145
2011-9-5,78,60,42,48,42,30,93,60,17,30.44,30.37,30.26,10,10,10,10,4,17,0.00,1,,303
2011-9-6,80,64,48,52,44,39,76,55,30,30.37,30.33,30.29,10,10,10,23,6,32,0.00,2,,46
2011-9-7,73,63,53,54,51,45,94,70,36,30.44,30.38,30.34,10,10,8,25,6,32,0.11,5,Thunderstorm,65
2011-9-8,73,60,48,48,44,37,87,60,31,30.52,30.45,30.34,10,10,10,25,8,30,0.00,6,Thunderstorm,95
2011-9-9,60,53,46,48,45,43,93,75,52,30.47,30.39,30.33,10,10,7,17,6,21,0.43,8,,287
2011-9-10,62,55,48,46,45,43,93,77,48,30.44,30.39,30.36,10,10,7,13,3,,0.05,5,,311
2011-9-11,71,56,41,46,41,37,93,65,35,30.47,30.42,30.36,10,10,10,9,3,,0.00,1,,319
2011-9-12,69,58,46,46,43,36,87,65,28,30.48,30.43,30.36,10,10,10,18,5,24,0.00,2,,308
2011-9-13,73,58,44,48,43,39,87,65,33,30.42,30.35,30.26,10,10,10,15,4,22,0.01,2,Thunderstorm,356
2011-9-14,69,56,44,48,43,39,87,68,35,30.32,30.27,30.19,10,10,9,24,5,31,0.01,3,Thunderstorm,305
2011-9-15,68,58,48,48,45,39,87,70,35,30.29,30.25,30.17,10,10,4,17,5,25,0.07,7,Thunderstorm,187
2011-9-16,62,52,41,48,44,37,87,78,52,30.28,30.24,30.20,10,10,9,21,3,32,0.07,5,,113
2011-9-17,69,55,41,46,42,37,93,70,33,30.28,30.25,30.20,10,10,10,26,6,32,0.01,5,,311
2011-9-18,71,53,35,39,36,30,87,64,27,30.43,30.37,30.31,10,10,10,12,3,17,0.00,0,,351
2011-9-19,68,54,39,39,36,32,87,57,32,30.43,30.36,30.27,10,10,10,20,6,24,0.00,0,,322
2011-9-20,78,60,41,37,34,28,71,46,16,30.34,30.28,30.21,10,10,10,16,5,20,0.00,1,,335
2011-9-21,75,60,44,39,34,21,66,40,17,30.35,30.27,30.20,10,10,10,20,8,26,0.00,2,,230
2011-9-22,73,57,41,37,30,19,66,42,13,30.41,30.36,30.30,10,10,10,22,9,26,0.00,1,,4
2011-9-23,78,56,35,32,26,21,65,33,15,30.48,30.42,30.34,10,10,10,12,6,,0.00,0,,1
2011-9-24,80,60,39,30,25,21,56,31,12,30.38,30.29,30.19,10,10,2,12,5,20,0.00,0,,349
2011-9-25,80,58,37,28,23,14,56,31,11,30.25,30.19,30.10,10,10,10,14,5,21,0.00,0,,338
2011-9-26,80,58,37,36,27,19,52,31,14,30.26,30.21,30.17,10,10,10,24,6,31,0.00,0,,16
2011-9-27,78,61,44,36,33,28,57,37,20,30.39,30.33,30.30,10,10,10,23,6,31,0.00,2,,33
2011-9-28,80,60,39,37,31,21,70,48,12,30.39,30.34,30.24,10,10,10,15,5,21,0.00,0,,358
2011-9-29,71,58,44,34,27,21,46,37,23,30.40,30.36,30.31,10,10,10,13,7,22,0.02,3,,13
2011-9-30,,,,,,,,,,,,,,,,,,,0.00,,,-1